BBC Polonia — V2EZ6 — position and weather

sailwx.info

Track history (hours):
 
Tides and Currents Weather Stations Pressure Air Temp Water Temp Dewpoint Dewpoint Depression Visibility Wind Speed Wind Dir Waves Ship Positions

BBC Polonia

Last reported at 2016-Jan-05 06:31 UTC. Time now 2016-Feb-11 19:13 UTC.
Position N 31°08' E 121°54'.
Warning: this ship's position is 37 days out of date.

Length 123 m; draft 6.2 m.

Type: Ship (hazmat cat A). MMSI: 305614000.

Date/timePositionNaut miles runAvg speedWind from/ knotsBaromVisibWave heightAir tempDewpointWater temp
2016-Jan-05 06:31N 31°08' E 121°54'1413.3
2016-Jan-05 05:27N 31°18' E 121°43'1111.9
2016-Jan-05 04:33N 31°24' E 121°33'1110.7
2016-Jan-05 03:33N 31°31' E 121°23'1211.9
2016-Jan-05 02:33N 31°39' E 121°13'1111.0
2016-Jan-05 01:32N 31°46' E 121°02'9 9.5
2016-Jan-05 00:33N 31°53' E 120°55'1 0.5
2016-Jan-04 23:23N 31°54' E 120°55'0 0.0
2016-Jan-04 22:32N 31°54' E 120°55'0 0.0
2016-Jan-04 21:32N 31°54' E 120°55'0 0.0
2016-Jan-04 20:32N 31°54' E 120°55'0 0.0
2016-Jan-04 19:32N 31°54' E 120°55'0 0.0
2016-Jan-04 18:32N 31°54' E 120°55'0 0.0
2016-Jan-04 17:20N 31°54' E 120°55'0 0.0
2016-Jan-04 16:26N 31°54' E 120°55'0 0.0
2016-Jan-04 15:23N 31°54' E 120°55'0 0.0
2016-Jan-04 14:32N 31°54' E 120°55'0 0.0
2016-Jan-04 13:05N 31°54' E 120°55'0 0.0
2016-Jan-04 12:26N 31°54' E 120°55'0 0.0
2016-Jan-04 11:32N 31°54' E 120°55'0 0.0
2016-Jan-04 10:29N 31°54' E 120°55'0 0.0
2016-Jan-04 09:29N 31°54' E 120°55'0 0.0
2016-Jan-04 08:32N 31°54' E 120°55'0 0.0
2016-Jan-04 07:32N 31°54' E 120°55'0 0.0
2016-Jan-04 06:29N 31°54' E 120°55'0 0.0
2016-Jan-04 05:29N 31°54' E 120°55'0 0.0
2016-Jan-04 04:26N 31°54' E 120°55'0 0.0
2016-Jan-04 03:08N 31°54' E 120°55'0 0.0
2016-Jan-04 02:26N 31°54' E 120°55'0 0.0
2016-Jan-04 01:32N 31°54' E 120°55'0 0.0
2016-Jan-04 00:32N 31°54' E 120°55'0 0.0
2016-Jan-03 23:26N 31°54' E 120°55'0 0.0
2016-Jan-03 22:20N 31°54' E 120°55'0 0.0
2016-Jan-03 21:32N 31°54' E 120°55'0 0.0
2016-Jan-03 20:32N 31°54' E 120°55'0 0.0
2016-Jan-03 19:32N 31°54' E 120°55'0 0.0
2016-Jan-03 18:05N 31°54' E 120°55'0 0.0
2016-Jan-03 17:32N 31°54' E 120°55'0 0.0
2016-Jan-03 16:26N 31°54' E 120°55'0 0.0
2016-Jan-03 15:26N 31°54' E 120°55'0 0.0
2016-Jan-03 14:32N 31°54' E 120°55'0 0.0
2016-Jan-03 13:23N 31°54' E 120°55'0 0.0
2016-Jan-03 12:32N 31°54' E 120°55'0 0.0
2016-Jan-03 11:17N 31°54' E 120°55'0 0.0
2016-Jan-03 10:23N 31°54' E 120°55'0 0.2
2016-Jan-03 09:33N 31°54' E 120°55'5 4.9
2016-Jan-03 08:30N 31°49' E 120°57'4 3.9
2016-Jan-03 07:31N 31°51' E 120°53'4 4.2
2016-Jan-03 06:33N 31°55' E 120°53'0 0.0
2016-Jan-03 05:33N 31°55' E 120°53'0 0.0
2016-Jan-03 04:33N 31°55' E 120°53'0 0.0
2016-Jan-03 03:24N 31°55' E 120°53'0 0.1
2016-Jan-03 02:33N 31°56' E 120°53'0 0.0
2016-Jan-03 01:33N 31°56' E 120°53'0 0.1
2016-Jan-03 00:33N 31°56' E 120°53'0 0.1
2016-Jan-02 23:33N 31°56' E 120°53'0 0.1
2016-Jan-02 22:33N 31°55' E 120°53'0 0.1
2016-Jan-02 21:33N 31°55' E 120°53'0 0.0
2016-Jan-02 20:33N 31°55' E 120°53'0 0.0
2016-Jan-02 19:33N 31°55' E 120°53'0 0.0
2016-Jan-02 18:33N 31°55' E 120°53'0 0.0
2016-Jan-02 17:33N 31°55' E 120°53'0 0.0
2016-Jan-02 16:27N 31°55' E 120°53'0 0.0
2016-Jan-02 15:33N 31°55' E 120°53'0 0.0
2016-Jan-02 14:33N 31°55' E 120°53'0 0.1
2016-Jan-02 13:33N 31°55' E 120°53'1 0.8
2016-Jan-02 12:33N 31°55' E 120°53'1110.9
2016-Jan-02 11:33N 31°46' E 121°02'1413.8
2016-Jan-02 10:33N 31°38' E 121°15'1312.8
2016-Jan-02 09:33N 31°30' E 121°26'9 8.9
2016-Jan-02 08:33N 31°24' E 121°34'10 9.8
2016-Jan-02 07:33N 31°18' E 121°43'1211.7
2016-Jan-02 06:33N 31°10' E 121°53'3511.5
2016-Jan-02 03:31N 31°00' E 122°31'  
Track history (hours):
 
Tides and Currents Weather Stations Pressure Air Temp Water Temp Dewpoint Dewpoint Depression Visibility Wind Speed Wind Dir Waves Ship Positions

BBC Polonia

Last reported at 2016-Jan-05 06:31 UTC. Time now 2016-Feb-11 19:13 UTC.
Position N 31°08' E 121°54'.
Warning: this ship's position is 37 days out of date.

Length 123 m; draft 6.2 m.

Type: Ship (hazmat cat A). MMSI: 305614000.

Date/timePositionNaut miles runAvg speedWind from/ knotsBaromVisibWave heightAir tempDewpointWater temp
2016-Jan-05 06:31N 31°08' E 121°54'1413.3
2016-Jan-05 05:27N 31°18' E 121°43'1111.9
2016-Jan-05 04:33N 31°24' E 121°33'1110.7
2016-Jan-05 03:33N 31°31' E 121°23'1211.9
2016-Jan-05 02:33N 31°39' E 121°13'1111.0
2016-Jan-05 01:32N 31°46' E 121°02'9 9.5
2016-Jan-05 00:33N 31°53' E 120°55'1 0.5
2016-Jan-04 23:23N 31°54' E 120°55'0 0.0
2016-Jan-04 22:32N 31°54' E 120°55'0 0.0
2016-Jan-04 21:32N 31°54' E 120°55'0 0.0
2016-Jan-04 20:32N 31°54' E 120°55'0 0.0
2016-Jan-04 19:32N 31°54' E 120°55'0 0.0
2016-Jan-04 18:32N 31°54' E 120°55'0 0.0
2016-Jan-04 17:20N 31°54' E 120°55'0 0.0
2016-Jan-04 16:26N 31°54' E 120°55'0 0.0
2016-Jan-04 15:23N 31°54' E 120°55'0 0.0
2016-Jan-04 14:32N 31°54' E 120°55'0 0.0
2016-Jan-04 13:05N 31°54' E 120°55'0 0.0
2016-Jan-04 12:26N 31°54' E 120°55'0 0.0
2016-Jan-04 11:32N 31°54' E 120°55'0 0.0
2016-Jan-04 10:29N 31°54' E 120°55'0 0.0
2016-Jan-04 09:29N 31°54' E 120°55'0 0.0
2016-Jan-04 08:32N 31°54' E 120°55'0 0.0
2016-Jan-04 07:32N 31°54' E 120°55'0 0.0
2016-Jan-04 06:29N 31°54' E 120°55'0 0.0
2016-Jan-04 05:29N 31°54' E 120°55'0 0.0
2016-Jan-04 04:26N 31°54' E 120°55'0 0.0
2016-Jan-04 03:08N 31°54' E 120°55'0 0.0
2016-Jan-04 02:26N 31°54' E 120°55'0 0.0
2016-Jan-04 01:32N 31°54' E 120°55'0 0.0
2016-Jan-04 00:32N 31°54' E 120°55'0 0.0
2016-Jan-03 23:26N 31°54' E 120°55'0 0.0
2016-Jan-03 22:20N 31°54' E 120°55'0 0.0
2016-Jan-03 21:32N 31°54' E 120°55'0 0.0
2016-Jan-03 20:32N 31°54' E 120°55'0 0.0
2016-Jan-03 19:32N 31°54' E 120°55'0 0.0
2016-Jan-03 18:05N 31°54' E 120°55'0 0.0
2016-Jan-03 17:32N 31°54' E 120°55'0 0.0
2016-Jan-03 16:26N 31°54' E 120°55'0 0.0
2016-Jan-03 15:26N 31°54' E 120°55'0 0.0
2016-Jan-03 14:32N 31°54' E 120°55'0 0.0
2016-Jan-03 13:23N 31°54' E 120°55'0 0.0
2016-Jan-03 12:32N 31°54' E 120°55'0 0.0
2016-Jan-03 11:17N 31°54' E 120°55'0 0.0
2016-Jan-03 10:23N 31°54' E 120°55'0 0.2
2016-Jan-03 09:33N 31°54' E 120°55'5 4.9
2016-Jan-03 08:30N 31°49' E 120°57'4 3.9
2016-Jan-03 07:31N 31°51' E 120°53'4 4.2
2016-Jan-03 06:33N 31°55' E 120°53'0 0.0
2016-Jan-03 05:33N 31°55' E 120°53'0 0.0
2016-Jan-03 04:33N 31°55' E 120°53'0 0.0
2016-Jan-03 03:24N 31°55' E 120°53'0 0.1
2016-Jan-03 02:33N 31°56' E 120°53'0 0.0
2016-Jan-03 01:33N 31°56' E 120°53'0 0.1
2016-Jan-03 00:33N 31°56' E 120°53'0 0.1
2016-Jan-02 23:33N 31°56' E 120°53'0 0.1
2016-Jan-02 22:33N 31°55' E 120°53'0 0.1
2016-Jan-02 21:33N 31°55' E 120°53'0 0.0
2016-Jan-02 20:33N 31°55' E 120°53'0 0.0
2016-Jan-02 19:33N 31°55' E 120°53'0 0.0
2016-Jan-02 18:33N 31°55' E 120°53'0 0.0
2016-Jan-02 17:33N 31°55' E 120°53'0 0.0
2016-Jan-02 16:27N 31°55' E 120°53'0 0.0
2016-Jan-02 15:33N 31°55' E 120°53'0 0.0
2016-Jan-02 14:33N 31°55' E 120°53'0 0.1
2016-Jan-02 13:33N 31°55' E 120°53'1 0.8
2016-Jan-02 12:33N 31°55' E 120°53'1110.9
2016-Jan-02 11:33N 31°46' E 121°02'1413.8
2016-Jan-02 10:33N 31°38' E 121°15'1312.8
2016-Jan-02 09:33N 31°30' E 121°26'9 8.9
2016-Jan-02 08:33N 31°24' E 121°34'10 9.8
2016-Jan-02 07:33N 31°18' E 121°43'1211.7
2016-Jan-02 06:33N 31°10' E 121°53'3511.5
2016-Jan-02 03:31N 31°00' E 122°31'  

Dump ship's entire track history